Time;durP1;ratioP1;P1;durP2;ratioP2;P2;SDS_P1;SDS_P2;PMS_P1;PMS_P2;Temp;Humidity;BMP_temperature;BMP_pressure;BME280_temperature;BME280_humidity;BME280_pressure;Samples;Min_cycle;Max_cycle;Signal;HPM_P1;HPM_P2
2024/01/02 00:01:43;;;;;;;0.40;0.40;;;5.10;99.90;;;;;;6251098;23;20171;-79
2024/01/02 00:04:09;;;;;;;0.40;0.40;;;5.20;99.90;;;;;;6250821;23;20718;-80
2024/01/02 00:06:37;;;;;;;1.40;1.25;;;5.20;99.90;;;;;;6223074;23;20254;-79
2024/01/02 00:09:05;;;;;;;1.67;1.58;;;5.20;99.90;;;;;;6222878;23;20226;-81
2024/01/02 00:11:31;;;;;;;0.75;0.75;;;5.20;99.90;;;;;;6248560;23;20234;-79
2024/01/02 00:13:59;;;;;;;2.90;2.70;;;5.20;99.90;;;;;;6248992;23;20179;-80
2024/01/02 00:16:25;;;;;;;0.40;0.40;;;5.20;99.90;;;;;;6249474;23;20184;-81
2024/01/02 00:18:53;;;;;;;0.45;0.45;;;5.40;99.90;;;;;;6251492;23;20210;-81
2024/01/02 00:21:19;;;;;;;0.50;0.50;;;5.50;99.90;;;;;;6250601;23;20566;-79
2024/01/02 00:23:47;;;;;;;4.28;1.35;;;5.50;99.90;;;;;;6249939;23;20553;-79
2024/01/02 00:26:14;;;;;;;0.70;0.70;;;5.50;99.90;;;;;;6251136;23;20349;-78
2024/01/02 00:28:41;;;;;;;2.60;1.70;;;5.50;99.90;;;;;;6226145;23;20441;-80
2024/01/02 00:31:08;;;;;;;0.40;0.40;;;5.50;99.90;;;;;;6252705;23;20172;-80
2024/01/02 00:33:34;;;;;;;0.40;0.40;;;5.50;99.90;;;;;;6251410;23;20371;-79
2024/01/02 00:36:03;;;;;;;0.52;0.52;;;5.40;99.90;;;;;;6253522;23;20171;-79
2024/01/02 00:38:32;;;;;;;0.40;0.40;;;5.40;99.90;;;;;;6253918;23;20187;-78
2024/01/02 00:40:59;;;;;;;0.40;0.40;;;5.20;99.90;;;;;;6252682;23;20255;-80
2024/01/02 00:43:26;;;;;;;0.40;0.40;;;5.10;99.90;;;;;;6250304;23;20238;-79
2024/01/02 00:45:53;;;;;;;0.40;0.40;;;5.00;99.90;;;;;;6252435;23;20179;-81
2024/01/02 00:48:20;;;;;;;0.40;0.40;;;4.80;99.90;;;;;;6253882;23;20180;-80
2024/01/02 00:50:47;;;;;;;0.57;0.57;;;4.80;99.90;;;;;;6250263;23;20491;-78
2024/01/02 00:53:15;;;;;;;0.47;0.47;;;4.80;99.90;;;;;;6250551;23;20202;-81
2024/01/02 00:55:42;;;;;;;1.13;1.13;;;4.70;99.90;;;;;;6250221;23;20180;-82
2024/01/02 00:58:10;;;;;;;1.95;1.63;;;4.60;99.90;;;;;;6249979;23;20199;-82
2024/01/02 01:00:37;;;;;;;0.40;0.40;;;4.50;99.90;;;;;;6249395;23;20179;-82
2024/01/02 01:03:05;;;;;;;0.40;0.40;;;4.40;99.90;;;;;;6250611;23;20221;-80
2024/01/02 01:05:32;;;;;;;0.40;0.40;;;4.40;99.90;;;;;;6250640;23;20171;-80
2024/01/02 01:08:01;;;;;;;0.80;0.80;;;4.40;99.90;;;;;;6224532;23;20226;-79
2024/01/02 01:10:28;;;;;;;1.35;1.35;;;4.30;99.90;;;;;;6251121;23;20210;-78
2024/01/02 01:12:55;;;;;;;0.40;0.40;;;4.30;99.90;;;;;;6247073;23;20222;-79
2024/01/02 01:15:21;;;;;;;0.40;0.40;;;4.30;99.90;;;;;;6223456;23;20206;-82
2024/01/02 01:17:49;;;;;;;0.47;0.47;;;4.40;99.90;;;;;;6250948;23;20171;-80
2024/01/02 01:20:16;;;;;;;0.40;0.40;;;4.30;99.90;;;;;;6250095;23;20234;-80
2024/01/02 01:22:43;;;;;;;1.30;1.20;;;4.30;99.90;;;;;;6250093;23;20183;-81
2024/01/02 01:25:11;;;;;;;0.40;0.40;;;4.30;99.90;;;;;;6250046;23;20190;-79
2024/01/02 01:27:38;;;;;;;0.60;0.60;;;4.20;99.90;;;;;;6250451;23;20207;-81
2024/01/02 01:30:06;;;;;;;1.52;1.10;;;4.30;99.90;;;;;;6250102;23;20213;-79
2024/01/02 01:32:32;;;;;;;0.40;0.40;;;4.20;99.90;;;;;;6223624;23;20245;-81
2024/01/02 01:35:02;;;;;;;0.50;0.50;;;4.20;99.90;;;;;;6223892;23;20183;-79
2024/01/02 01:37:34;;;;;;;0.60;0.60;;;4.10;99.90;;;;;;6254658;23;20190;-81
2024/01/02 01:40:01;;;;;;;0.40;0.40;;;4.10;99.90;;;;;;6269807;22;20187;-81
2024/01/02 01:42:28;;;;;;;0.40;0.40;;;4.10;99.90;;;;;;6272832;23;20176;-80
2024/01/02 01:44:55;;;;;;;0.60;0.60;;;4.20;99.90;;;;;;6271749;23;20194;-79
2024/01/02 01:47:23;;;;;;;0.40;0.40;;;4.10;99.90;;;;;;6255715;23;20183;-80
2024/01/02 01:49:51;;;;;;;0.40;0.40;;;4.10;99.90;;;;;;6253196;23;20183;-81
2024/01/02 01:52:19;;;;;;;0.40;0.40;;;4.10;99.90;;;;;;6225944;23;20231;-80
2024/01/02 01:54:46;;;;;;;0.68;0.68;;;4.10;99.90;;;;;;6252321;23;20231;-79
2024/01/02 01:57:15;;;;;;;0.75;0.57;;;4.10;99.90;;;;;;6251923;23;20211;-82
2024/01/02 01:59:43;;;;;;;1.80;1.70;;;4.10;99.90;;;;;;6228881;23;20206;-79
2024/01/02 02:02:11;;;;;;;0.40;0.40;;;4.10;99.90;;;;;;6273453;23;20175;-80
2024/01/02 02:04:45;;;;;;;0.40;0.40;;;4.10;99.90;;;;;;6271717;23;20171;-79
2024/01/02 02:07:12;;;;;;;0.85;0.85;;;4.10;99.90;;;;;;6265821;23;20172;-78
2024/01/02 02:09:39;;;;;;;0.40;0.40;;;4.10;99.90;;;;;;6250426;23;20191;-78
2024/01/02 02:12:07;;;;;;;0.40;0.40;;;4.00;99.90;;;;;;6249643;23;20215;-77
2024/01/02 02:14:34;;;;;;;0.60;0.60;;;3.90;99.90;;;;;;6249803;23;20172;-77
2024/01/02 02:17:01;;;;;;;0.40;0.40;;;3.90;99.90;;;;;;6250185;23;20186;-78
2024/01/02 02:19:28;;;;;;;0.40;0.40;;;3.90;99.90;;;;;;6250391;23;20269;-78
2024/01/02 02:21:56;;;;;;;0.40;0.40;;;3.80;99.90;;;;;;6249538;23;20241;-78
2024/01/02 02:24:24;;;;;;;0.57;0.57;;;3.80;99.90;;;;;;6249958;23;20184;-78
2024/01/02 02:26:56;;;;;;;0.40;0.40;;;3.70;99.90;;;;;;6249876;23;20184;-78
2024/01/02 02:29:23;;;;;;;0.73;0.50;;;3.70;99.90;;;;;;6223487;23;20175;-78
2024/01/02 02:31:50;;;;;;;0.60;0.60;;;3.70;99.90;;;;;;6249913;23;20416;-78
2024/01/02 02:34:20;;;;;;;0.57;0.57;;;3.60;99.90;;;;;;6249329;23;20526;-79
2024/01/02 02:36:47;;;;;;;0.63;0.63;;;3.50;99.90;;;;;;6223424;23;20214;-79
2024/01/02 02:39:14;;;;;;;0.40;0.40;;;3.40;99.90;;;;;;6223067;23;20215;-79
2024/01/02 02:41:42;;;;;;;0.40;0.40;;;3.30;99.90;;;;;;6250201;23;20176;-80
2024/01/02 02:44:09;;;;;;;0.50;0.50;;;3.20;99.90;;;;;;6251217;23;20235;-79
2024/01/02 02:46:37;;;;;;;0.40;0.40;;;3.20;99.90;;;;;;6249942;23;20194;-80
2024/01/02 02:49:04;;;;;;;0.55;0.55;;;3.10;99.90;;;;;;6250786;23;20202;-81
2024/01/02 02:51:31;;;;;;;0.77;0.77;;;3.10;99.90;;;;;;6250846;23;20236;-80
2024/01/02 02:54:00;;;;;;;0.40;0.40;;;3.10;99.90;;;;;;6250704;23;20207;-79
2024/01/02 02:56:29;;;;;;;0.40;0.40;;;3.20;99.90;;;;;;6250951;23;20413;-80
2024/01/02 02:58:56;;;;;;;0.57;0.57;;;3.30;99.90;;;;;;6250997;23;20387;-79
2024/01/02 03:01:24;;;;;;;0.40;0.40;;;3.30;99.90;;;;;;6250921;23;20186;-80
2024/01/02 03:03:53;;;;;;;0.50;0.50;;;3.40;99.90;;;;;;6224533;23;20184;-81
2024/01/02 03:06:20;;;;;;;0.40;0.40;;;3.30;99.90;;;;;;6250870;23;20207;-79
2024/01/02 03:08:47;;;;;;;2.15;1.95;;;3.20;99.90;;;;;;6223722;23;20230;-80
2024/01/02 03:11:14;;;;;;;0.47;0.47;;;3.20;99.90;;;;;;6249792;23;20230;-79
2024/01/02 03:13:42;;;;;;;0.93;0.93;;;3.20;99.90;;;;;;6249133;23;20675;-80
2024/01/02 03:16:09;;;;;;;0.60;0.60;;;3.30;99.90;;;;;;6248090;23;20180;-79
2024/01/02 03:18:36;;;;;;;0.52;0.52;;;3.30;99.90;;;;;;6222496;23;20615;-80
2024/01/02 03:21:05;;;;;;;0.50;0.50;;;3.40;99.90;;;;;;6248558;23;20237;-80
2024/01/02 03:23:33;;;;;;;1.55;1.50;;;3.50;99.90;;;;;;6249106;23;20184;-79
2024/01/02 03:26:00;;;;;;;2.05;0.65;;;3.50;99.90;;;;;;6198361;23;20191;-80
2024/01/02 03:28:27;;;;;;;0.85;0.85;;;3.50;99.90;;;;;;6249660;23;20483;-79
2024/01/02 03:30:54;;;;;;;0.50;0.50;;;3.50;99.90;;;;;;6247516;23;20243;-80
2024/01/02 03:33:22;;;;;;;3.22;1.33;;;3.50;99.90;;;;;;6249940;23;20196;-78
2024/01/02 03:35:51;;;;;;;0.75;0.75;;;3.50;99.90;;;;;;6250301;23;20207;-80
2024/01/02 03:38:19;;;;;;;1.25;0.80;;;3.50;99.90;;;;;;6250253;23;20175;-78
2024/01/02 03:40:46;;;;;;;2.25;2.05;;;3.50;99.90;;;;;;6250381;23;20221;-77
2024/01/02 03:43:13;;;;;;;0.45;0.45;;;3.60;99.90;;;;;;6249905;23;20211;-78
2024/01/02 03:45:40;;;;;;;0.40;0.40;;;3.50;99.90;;;;;;6251590;23;20199;-77
2024/01/02 03:48:07;;;;;;;0.40;0.40;;;3.40;99.90;;;;;;6251650;23;20229;-77
2024/01/02 03:50:35;;;;;;;0.55;0.55;;;3.30;99.90;;;;;;6251742;23;20183;-80
2024/01/02 03:53:03;;;;;;;0.40;0.40;;;3.20;99.90;;;;;;6254814;23;20227;-78
2024/01/02 03:55:30;;;;;;;0.40;0.40;;;3.00;99.90;;;;;;6256847;23;20534;-79
2024/01/02 03:57:57;;;;;;;0.98;0.95;;;2.90;99.90;;;;;;6230981;23;20187;-80
2024/01/02 04:00:24;;;;;;;0.40;0.40;;;2.80;99.90;;;;;;6254501;23;20239;-78
2024/01/02 04:02:51;;;;;;;2.05;1.85;;;2.70;99.90;;;;;;6252199;23;20248;-79
2024/01/02 04:05:22;;;;;;;2.25;1.48;;;2.60;99.90;;;;;;6252231;23;20211;-79
2024/01/02 04:07:49;;;;;;;1.10;1.10;;;2.50;99.90;;;;;;6251841;23;20191;-78
2024/01/02 04:10:17;;;;;;;5.47;1.50;;;2.50;99.90;;;;;;6225422;23;20247;-78
2024/01/02 04:12:44;;;;;;;0.40;0.40;;;2.40;99.90;;;;;;6251208;23;20211;-79
2024/01/02 04:15:11;;;;;;;0.40;0.40;;;2.40;99.90;;;;;;6251497;23;20203;-80
2024/01/02 04:17:40;;;;;;;0.93;0.93;;;2.30;99.90;;;;;;6251489;23;20186;-79
2024/01/02 04:20:08;;;;;;;0.50;0.50;;;2.30;99.90;;;;;;6251554;23;20176;-80
2024/01/02 04:22:36;;;;;;;0.57;0.57;;;2.30;99.90;;;;;;6251975;23;20395;-81
2024/01/02 04:25:04;;;;;;;0.40;0.40;;;2.30;99.90;;;;;;6252144;23;20207;-80
2024/01/02 04:27:31;;;;;;;0.80;0.80;;;2.20;99.90;;;;;;6251809;23;20238;-80
2024/01/02 04:29:58;;;;;;;0.52;0.52;;;2.20;99.90;;;;;;6267511;22;20198;-81
2024/01/02 04:32:26;;;;;;;1.02;0.90;;;2.10;99.90;;;;;;6274161;22;20202;-81
2024/01/02 04:34:53;;;;;;;1.10;1.05;;;2.00;99.90;;;;;;6274567;22;20178;-80
2024/01/02 04:37:21;;;;;;;0.50;0.50;;;2.00;99.90;;;;;;6274141;22;20164;-81
2024/01/02 04:39:48;;;;;;;0.50;0.50;;;2.00;99.90;;;;;;6264110;22;20182;-80
2024/01/02 04:42:17;;;;;;;1.10;1.10;;;2.00;99.90;;;;;;6253667;23;20184;-80
2024/01/02 04:44:44;;;;;;;1.40;1.30;;;2.00;99.90;;;;;;6251964;23;20480;-83
2024/01/02 04:47:12;;;;;;;0.50;0.50;;;2.00;99.90;;;;;;6225539;23;20211;-81
2024/01/02 04:49:39;;;;;;;0.40;0.40;;;1.90;99.90;;;;;;6225654;23;20184;-81
2024/01/02 04:52:06;;;;;;;1.02;0.93;;;1.90;99.90;;;;;;6222734;23;20242;-80
2024/01/02 04:54:34;;;;;;;0.50;0.50;;;1.90;99.90;;;;;;6227115;23;20341;-82
2024/01/02 04:57:02;;;;;;;5.75;1.10;;;1.90;99.90;;;;;;6252672;23;20180;-82
2024/01/02 04:59:36;;;;;;;20.23;1.23;;;1.90;99.90;;;;;;6230017;23;20159;-82
2024/01/02 05:02:04;;;;;;;0.43;0.43;;;1.90;99.90;;;;;;6256645;23;20544;-81
2024/01/02 05:04:31;;;;;;;0.57;0.57;;;2.00;99.90;;;;;;6272538;22;20179;-81
2024/01/02 05:07:04;;;;;;;0.40;0.40;;;2.00;99.90;;;;;;6273100;22;20187;-81
2024/01/02 05:09:33;;;;;;;0.40;0.40;;;1.90;99.90;;;;;;6268325;23;20168;-82
2024/01/02 05:12:05;;;;;;;0.70;0.70;;;1.80;99.90;;;;;;6265901;23;20231;-83
2024/01/02 05:14:35;;;;;;;1.50;1.40;;;1.80;99.90;;;;;;6268684;23;20198;-80
2024/01/02 05:17:02;;;;;;;1.27;0.80;;;1.80;99.90;;;;;;6264254;23;20175;-81
2024/01/02 05:19:30;;;;;;;1.73;1.63;;;1.80;99.90;;;;;;6259767;23;20175;-80
2024/01/02 05:21:58;;;;;;;0.82;0.55;;;1.80;99.90;;;;;;6239601;23;20198;-80
2024/01/02 05:24:24;;;;;;;9.15;1.40;;;1.80;99.90;;;;;;6259848;23;20425;-80
2024/01/02 05:26:52;;;;;;;1.10;1.10;;;1.70;99.90;;;;;;6251465;23;20176;-80
2024/01/02 05:29:19;;;;;;;0.60;0.60;;;1.70;99.90;;;;;;6249973;23;20183;-80
2024/01/02 05:31:47;;;;;;;0.40;0.40;;;1.70;99.90;;;;;;6250312;23;20187;-79
2024/01/02 05:34:15;;;;;;;2.33;2.22;;;1.70;99.90;;;;;;6250846;23;20226;-83
2024/01/02 05:36:44;;;;;;;5.28;1.83;;;1.70;99.90;;;;;;6250971;23;20239;-80
2024/01/02 05:39:12;;;;;;;0.65;0.65;;;1.90;99.90;;;;;;6250775;23;20218;-84
2024/01/02 05:41:43;;;;;;;1.55;1.45;;;1.60;99.90;;;;;;6248333;23;20168;-82
2024/01/02 05:44:11;;;;;;;0.98;0.98;;;1.60;99.90;;;;;;6251314;23;20218;-81
2024/01/02 05:46:38;;;;;;;1.38;1.17;;;1.60;99.90;;;;;;6250636;23;20776;-82
2024/01/02 05:49:07;;;;;;;1.40;0.73;;;1.90;99.90;;;;;;6224630;23;20182;-82
2024/01/02 05:51:40;;;;;;;1.90;1.60;;;1.70;99.90;;;;;;6248812;23;20179;-82
2024/01/02 05:54:07;;;;;;;0.75;0.75;;;1.80;99.90;;;;;;6249883;23;20408;-82
2024/01/02 05:56:37;;;;;;;2.85;1.40;;;1.80;99.90;;;;;;6223678;23;20179;-82
2024/01/02 05:59:04;;;;;;;0.63;0.63;;;1.80;99.90;;;;;;6248854;23;20183;-84
2024/01/02 06:01:31;;;;;;;0.63;0.63;;;2.00;99.90;;;;;;6250632;23;20182;-82
2024/01/02 06:04:02;;;;;;;0.90;0.90;;;2.00;99.90;;;;;;6250904;23;20215;-81
2024/01/02 06:06:32;;;;;;;0.45;0.45;;;2.00;99.90;;;;;;6249078;23;20226;-82
2024/01/02 06:09:01;;;;;;;1.02;1.02;;;1.90;99.90;;;;;;6226684;23;20183;-81
2024/01/02 06:11:33;;;;;;;0.60;0.60;;;1.70;99.90;;;;;;6246547;23;20187;-83
2024/01/02 06:14:02;;;;;;;0.40;0.40;;;1.80;99.90;;;;;;6250853;23;20230;-83
2024/01/02 06:16:32;;;;;;;0.60;0.60;;;1.90;99.90;;;;;;6250510;23;20180;-82
2024/01/02 06:18:59;;;;;;;0.43;0.43;;;1.70;99.90;;;;;;6251162;23;20172;-84
2024/01/02 06:21:26;;;;;;;0.70;0.70;;;1.70;99.90;;;;;;6251852;23;20255;-81
2024/01/02 06:23:54;;;;;;;0.85;0.85;;;1.60;99.90;;;;;;6250796;23;20171;-82
2024/01/02 06:26:35;;;;;;;0.73;0.73;;;1.60;99.90;;;;;;6234754;23;20178;-80
2024/01/02 06:29:05;;;;;;;1.35;1.35;;;1.60;99.90;;;;;;6256816;23;20244;-82
2024/01/02 06:31:40;;;;;;;0.45;0.45;;;1.60;99.90;;;;;;6265683;22;20176;-83
2024/01/02 06:34:08;;;;;;;0.40;0.40;;;1.50;99.90;;;;;;6244259;22;20201;-84
2024/01/02 06:36:36;;;;;;;0.70;0.70;;;1.60;99.90;;;;;;6268838;22;20194;-82
2024/01/02 06:39:08;;;;;;;0.93;0.93;;;1.70;99.90;;;;;;6210449;23;20232;-84
2024/01/02 06:41:35;;;;;;;0.85;0.85;;;1.60;99.90;;;;;;6255272;23;20176;-85
2024/01/02 06:44:06;;;;;;;1.27;0.98;;;1.50;99.90;;;;;;6228765;23;20179;-84
2024/01/02 06:46:38;;;;;;;1.52;1.48;;;1.50;99.90;;;;;;6254375;23;20194;-85
2024/01/02 06:49:08;;;;;;;0.40;0.40;;;1.60;99.90;;;;;;6237673;22;20240;-85
2024/01/02 06:51:39;;;;;;;0.70;0.70;;;1.60;99.90;;;;;;6272115;22;20152;-84
2024/01/02 06:54:06;;;;;;;0.70;0.70;;;1.70;99.90;;;;;;6259630;23;20199;-85
2024/01/02 06:56:33;;;;;;;1.08;1.02;;;1.70;99.90;;;;;;6255279;23;20172;-85
2024/01/02 06:59:00;;;;;;;0.50;0.50;;;1.80;99.90;;;;;;6232868;23;20194;-85
2024/01/02 07:01:27;;;;;;;0.40;0.40;;;1.90;99.90;;;;;;6228029;23;20194;-85
2024/01/02 07:03:55;;;;;;;1.13;1.13;;;1.90;99.90;;;;;;6254292;23;20250;-85
2024/01/02 07:06:22;;;;;;;0.95;0.95;;;1.90;99.90;;;;;;6253726;23;20231;-84
2024/01/02 07:08:49;;;;;;;1.55;1.48;;;1.90;99.90;;;;;;6253968;23;20179;-83
2024/01/02 07:11:18;;;;;;;0.90;0.90;;;1.80;99.90;;;;;;6252612;23;20303;-83
2024/01/02 07:13:45;;;;;;;1.58;1.10;;;1.90;99.90;;;;;;6226508;23;20399;-85
2024/01/02 07:16:12;;;;;;;1.15;1.15;;;2.00;99.90;;;;;;6252680;23;20202;-82
2024/01/02 07:18:39;;;;;;;0.38;0.38;;;2.00;99.90;;;;;;6251710;23;20243;-83
2024/01/02 07:21:06;;;;;;;0.90;0.90;;;2.00;99.90;;;;;;6227126;23;20179;-82
2024/01/02 07:23:40;;;;;;;0.60;0.60;;;2.10;99.90;;;;;;6254376;23;20174;-83
2024/01/02 07:26:08;;;;;;;0.65;0.65;;;2.00;99.90;;;;;;6227079;23;20398;-82
2024/01/02 07:28:36;;;;;;;0.95;0.95;;;2.10;99.90;;;;;;6254011;23;20176;-82
2024/01/02 07:31:03;;;;;;;0.77;0.77;;;2.10;99.90;;;;;;6227390;23;20278;-82
2024/01/02 07:33:30;;;;;;;0.55;0.55;;;2.10;99.90;;;;;;6253628;23;20191;-83
2024/01/02 07:35:57;;;;;;;0.70;0.70;;;2.20;99.90;;;;;;6253891;23;20262;-84
2024/01/02 07:38:26;;;;;;;1.67;1.58;;;2.30;99.90;;;;;;6255104;23;20239;-82
2024/01/02 07:40:54;;;;;;;1.38;1.27;;;2.30;99.90;;;;;;6256311;23;20239;-83
2024/01/02 07:43:23;;;;;;;0.50;0.50;;;2.30;99.90;;;;;;6257438;23;20194;-82
2024/01/02 07:45:49;;;;;;;0.40;0.40;;;2.40;99.90;;;;;;6253917;23;20238;-85
2024/01/02 07:48:17;;;;;;;4.15;1.70;;;2.40;99.90;;;;;;6256161;23;20183;-82
2024/01/02 07:50:44;;;;;;;1.30;1.02;;;2.50;99.90;;;;;;6230878;23;20191;-84
2024/01/02 07:53:12;;;;;;;2.13;2.03;;;2.70;99.90;;;;;;6228040;23;20187;-82
2024/01/02 07:55:38;;;;;;;9.60;5.82;;;2.90;99.90;;;;;;6228627;23;20237;-82
2024/01/02 07:58:06;;;;;;;14.18;8.52;;;3.00;99.90;;;;;;6253927;23;20178;-85
2024/01/02 08:00:33;;;;;;;21.73;3.65;;;3.00;99.90;;;;;;6253783;23;20226;-82
2024/01/02 08:03:00;;;;;;;6.32;3.67;;;3.00;99.90;;;;;;6253251;23;20504;-83
2024/01/02 08:05:28;;;;;;;7.85;7.15;;;3.10;99.90;;;;;;6227277;23;20179;-82
2024/01/02 08:07:55;;;;;;;19.58;9.70;;;3.10;99.90;;;;;;6253383;23;20526;-82
2024/01/02 08:10:22;;;;;;;6.43;3.95;;;3.20;99.90;;;;;;6253024;23;20180;-82
2024/01/02 08:12:49;;;;;;;17.85;4.97;;;3.20;99.90;;;;;;6254264;23;20207;-83
2024/01/02 08:15:16;;;;;;;1.83;1.73;;;3.30;99.90;;;;;;6253956;23;20196;-82
2024/01/02 08:17:59;;;;;;;4.10;3.80;;;3.40;99.90;;;;;;6231976;23;20160;-82
2024/01/02 08:20:27;;;;;;;5.32;4.95;;;3.40;99.90;;;;;;6263420;23;20505;-82
2024/01/02 08:22:53;;;;;;;4.35;3.95;;;3.40;99.90;;;;;;6268309;23;20172;-83
2024/01/02 08:25:23;;;;;;;18.73;6.10;;;3.50;99.90;;;;;;6244176;23;20176;-84
2024/01/02 08:27:51;;;;;;;0.50;0.50;;;3.50;99.90;;;;;;6264049;23;20175;-86
2024/01/02 08:30:18;;;;;;;1.80;1.38;;;3.60;99.90;;;;;;6254962;23;20184;-82
2024/01/02 08:32:46;;;;;;;4.47;4.18;;;3.60;99.90;;;;;;6254353;23;20210;-84
2024/01/02 08:35:13;;;;;;;2.20;2.10;;;3.60;99.90;;;;;;6253619;23;20428;-82
2024/01/02 08:37:41;;;;;;;9.35;3.78;;;3.70;99.90;;;;;;6251565;23;20246;-81
2024/01/02 08:40:10;;;;;;;4.05;3.72;;;3.80;99.90;;;;;;6229870;23;20239;-83
2024/01/02 08:42:37;;;;;;;2.42;2.28;;;3.90;99.90;;;;;;6251999;23;20207;-83
2024/01/02 08:45:05;;;;;;;8.10;7.45;;;3.90;99.90;;;;;;6253329;23;20218;-83
2024/01/02 08:47:33;;;;;;;5.28;4.60;;;4.00;99.90;;;;;;6252338;23;20783;-83
2024/01/02 08:50:01;;;;;;;3.42;3.15;;;4.00;99.90;;;;;;6251588;23;20487;-82
2024/01/02 08:52:28;;;;;;;10.20;2.95;;;4.00;99.90;;;;;;6251710;23;20186;-81
2024/01/02 08:54:55;;;;;;;2.88;2.03;;;4.10;99.90;;;;;;6226026;23;20376;-83
2024/01/02 08:57:22;;;;;;;3.13;2.72;;;4.10;99.90;;;;;;6226201;23;20180;-84
2024/01/02 08:59:50;;;;;;;5.90;5.45;;;4.10;99.90;;;;;;6226837;23;20167;-83
2024/01/02 09:02:17;;;;;;;5.43;2.28;;;4.10;99.90;;;;;;6252304;23;20214;-82
2024/01/02 09:04:44;;;;;;;1.92;1.83;;;4.10;99.90;;;;;;6251528;23;20184;-82
2024/01/02 09:07:11;;;;;;;6.18;4.25;;;4.10;99.90;;;;;;6226229;23;20181;-81
2024/01/02 09:09:39;;;;;;;8.32;2.13;;;4.10;99.90;;;;;;6251293;23;20638;-80
2024/01/02 09:12:08;;;;;;;2.72;2.50;;;4.20;99.90;;;;;;6225218;23;20203;-80
2024/01/02 09:14:37;;;;;;;4.53;4.13;;;4.20;99.90;;;;;;6253165;23;20251;-82
2024/01/02 09:17:04;;;;;;;0.85;0.85;;;4.20;99.90;;;;;;6252341;23;20380;-82
2024/01/02 09:19:32;;;;;;;1.85;1.73;;;4.40;99.90;;;;;;6251214;23;20179;-81
2024/01/02 09:21:59;;;;;;;2.13;2.05;;;4.50;99.90;;;;;;6251947;23;20233;-83
2024/01/02 09:24:28;;;;;;;1.58;1.48;;;4.50;99.90;;;;;;6252875;23;20187;-82
2024/01/02 09:26:57;;;;;;;9.75;3.38;;;4.60;99.90;;;;;;6225450;23;20419;-80
2024/01/02 09:29:25;;;;;;;1.65;1.55;;;4.60;99.90;;;;;;6226751;23;20207;-80
2024/01/02 09:31:52;;;;;;;5.85;3.17;;;4.70;99.90;;;;;;6225447;23;20225;-80
2024/01/02 09:34:19;;;;;;;5.55;3.22;;;4.80;99.90;;;;;;6225704;23;20214;-81
2024/01/02 09:36:46;;;;;;;1.13;1.13;;;4.80;99.90;;;;;;6251548;23;20179;-80
2024/01/02 09:39:14;;;;;;;2.30;1.25;;;4.90;99.90;;;;;;6225671;23;20452;-80
2024/01/02 09:41:52;;;;;;;10.32;3.50;;;5.00;99.90;;;;;;6254078;23;20234;-81
2024/01/02 09:44:28;;;;;;;0.93;0.93;;;5.00;99.90;;;;;;6255426;23;20170;-80
2024/01/02 09:47:21;;;;;;;2.33;1.98;;;5.10;99.90;;;;;;6253655;23;20184;-80
2024/01/02 09:50:08;;;;;;;2.80;2.58;;;5.20;99.90;;;;;;6250618;23;20167;-79
2024/01/02 09:53:17;;;;;;;2.42;2.22;;;5.40;99.90;;;;;;6250479;23;20275;-81
2024/01/02 09:56:25;;;;;;;5.15;4.65;;;5.50;99.90;;;;;;6250497;23;20179;-80
2024/01/02 09:59:00;;;;;;;12.63;5.55;;;5.60;99.90;;;;;;6193471;23;20179;-80
2024/01/02 10:01:49;;;;;;;3.42;2.83;;;5.60;99.90;;;;;;6261658;23;20159;-79
2024/01/02 10:04:42;;;;;;;0.40;0.40;;;5.70;99.90;;;;;;6253827;23;20164;-80
2024/01/02 10:07:15;;;;;;;0.57;0.57;;;5.70;99.90;;;;;;6251179;23;20178;-81
2024/01/02 10:09:42;;;;;;;0.50;0.50;;;5.80;99.90;;;;;;6224074;23;20235;-80
2024/01/02 10:12:52;;;;;;;0.50;0.50;;;5.80;99.90;;;;;;6249527;23;20183;-81
2024/01/02 10:15:40;;;;;;;3.45;3.25;;;5.80;99.90;;;;;;6250848;23;20204;-81
2024/01/02 10:18:34;;;;;;;0.50;0.50;;;5.90;99.90;;;;;;6249649;23;20160;-81
2024/01/02 10:21:28;;;;;;;1.42;1.42;;;5.90;99.90;;;;;;6253151;23;20206;-81
2024/01/02 10:24:14;;;;;;;0.85;0.85;;;5.80;99.90;;;;;;6250781;23;20201;-80
2024/01/02 10:26:58;;;;;;;0.60;0.60;;;5.90;99.90;;;;;;6250824;23;20187;-81
2024/01/02 10:30:09;;;;;;;1.70;1.60;;;5.90;99.90;;;;;;6225744;23;20511;-80
2024/01/02 10:32:54;;;;;;;0.40;0.40;;;5.90;99.90;;;;;;6146336;23;20201;-81
2024/01/02 10:35:35;;;;;;;0.55;0.55;;;5.90;99.90;;;;;;6226966;23;20191;-81
2024/01/02 10:38:22;;;;;;;1.45;1.35;;;5.90;99.90;;;;;;6251528;23;20159;-82
2024/01/02 10:40:55;;;;;;;2.78;2.58;;;6.00;99.90;;;;;;6251658;23;20187;-80
2024/01/02 10:43:30;;;;;;;2.50;2.40;;;6.00;99.90;;;;;;6224087;23;20212;-78
2024/01/02 10:46:03;;;;;;;9.15;6.30;;;6.00;99.90;;;;;;6250039;23;20170;-80
2024/01/02 10:48:48;;;;;;;2.50;2.35;;;6.00;99.90;;;;;;6249526;23;20164;-78
2024/01/02 10:51:33;;;;;;;2.47;2.38;;;6.00;99.90;;;;;;6248711;23;20183;-81
2024/01/02 10:54:04;;;;;;;0.50;0.50;;;6.10;99.90;;;;;;6221950;23;20192;-82
2024/01/02 10:56:45;;;;;;;2.90;1.15;;;6.10;99.90;;;;;;6222556;23;20175;-82
2024/01/02 10:59:49;;;;;;;0.50;0.50;;;6.10;99.90;;;;;;6248914;23;20175;-82
2024/01/02 11:02:28;;;;;;;0.90;0.90;;;6.10;99.90;;;;;;6248852;23;20179;-83
2024/01/02 11:05:01;;;;;;;0.50;0.50;;;6.10;99.90;;;;;;6248487;23;20493;-82
2024/01/02 11:07:35;;;;;;;0.50;0.50;;;6.10;99.90;;;;;;6251147;23;20266;-81
2024/01/02 11:10:08;;;;;;;0.60;0.60;;;6.20;99.90;;;;;;6255008;23;20195;-82
2024/01/02 11:12:48;;;;;;;2.95;2.17;;;6.10;99.90;;;;;;6224398;23;20199;-81
2024/01/02 11:15:22;;;;;;;0.47;0.47;;;6.00;99.90;;;;;;6253080;23;20226;-80
2024/01/02 11:17:52;;;;;;;0.50;0.50;;;6.00;99.90;;;;;;6263172;22;20172;-82
2024/01/02 11:20:25;;;;;;;0.50;0.50;;;6.10;99.90;;;;;;6271363;22;20148;-78
2024/01/02 11:22:57;;;;;;;0.80;0.80;;;6.20;99.90;;;;;;6270962;22;20219;-81
2024/01/02 11:25:31;;;;;;;0.70;0.70;;;6.10;99.90;;;;;;6264177;22;20171;-82
2024/01/02 11:28:11;;;;;;;0.50;0.50;;;6.10;99.90;;;;;;6252805;23;20214;-83
2024/01/02 11:30:46;;;;;;;0.60;0.60;;;6.00;99.90;;;;;;6227493;23;20277;-80
2024/01/02 11:33:42;;;;;;;0.60;0.60;;;5.90;99.90;;;;;;6255815;23;20218;-82
2024/01/02 11:36:54;;;;;;;1.13;1.13;;;5.90;99.90;;;;;;6258068;23;20356;-82
2024/01/02 11:39:40;;;;;;;0.40;0.40;;;5.80;99.90;;;;;;6215173;23;20242;-81
2024/01/02 11:42:21;;;;;;;0.73;0.73;;;5.90;99.90;;;;;;6255005;23;20172;-80
2024/01/02 11:45:09;;;;;;;4.00;1.45;;;5.90;99.90;;;;;;6225730;23;20195;-78
2024/01/02 11:47:44;;;;;;;0.88;0.88;;;5.90;99.90;;;;;;6226776;23;20233;-81
2024/01/02 11:50:14;;;;;;;0.40;0.40;;;6.00;99.90;;;;;;6251366;23;20504;-80
2024/01/02 11:53:03;;;;;;;0.50;0.50;;;6.00;99.90;;;;;;6251301;23;20240;-82
2024/01/02 11:55:38;;;;;;;0.40;0.40;;;6.00;99.90;;;;;;6250063;23;20218;-82
2024/01/02 11:58:29;;;;;;;0.40;0.40;;;6.10;99.90;;;;;;6223238;23;20168;-81
2024/01/02 12:01:14;;;;;;;0.95;0.95;;;6.10;99.90;;;;;;6256030;22;20171;-80
2024/01/02 12:03:59;;;;;;;1.35;1.35;;;6.10;99.90;;;;;;6223906;23;20247;-79
2024/01/02 12:12:10;;;;;;;0.40;0.40;;;6.10;99.90;;;;;;6232926;22;20529;-81
2024/01/02 12:15:03;;;;;;;0.40;0.40;;;6.10;99.90;;;;;;6240400;23;20251;-79
2024/01/02 12:17:35;;;;;;;0.40;0.40;;;5.90;99.90;;;;;;6267846;22;20174;-82
2024/01/02 12:20:05;;;;;;;0.40;0.40;;;6.00;99.90;;;;;;6268277;23;20163;-82
2024/01/02 12:22:33;;;;;;;0.40;0.40;;;5.90;99.90;;;;;;6230521;23;20191;-83
2024/01/02 12:25:06;;;;;;;0.50;0.50;;;5.90;99.90;;;;;;6252385;23;20194;-81
2024/01/02 12:27:40;;;;;;;0.40;0.40;;;5.70;99.90;;;;;;6251910;23;20159;-82
2024/01/02 12:30:14;;;;;;;0.40;0.40;;;5.70;99.90;;;;;;6226334;23;20214;-81
2024/01/02 12:32:59;;;;;;;0.77;0.77;;;5.70;99.90;;;;;;6255153;23;20175;-80
2024/01/02 12:35:31;;;;;;;0.40;0.40;;;5.70;99.90;;;;;;6251591;23;20437;-82
2024/01/02 12:38:05;;;;;;;0.45;0.45;;;5.70;99.90;;;;;;6252460;23;20363;-80
2024/01/02 12:40:34;;;;;;;3.33;2.78;;;5.70;99.90;;;;;;6252270;23;20616;-81
2024/01/02 12:43:06;;;;;;;0.40;0.40;;;5.60;99.90;;;;;;6253024;23;20185;-81
2024/01/02 12:45:35;;;;;;;0.65;0.65;;;5.70;99.90;;;;;;6225558;23;20546;-80
2024/01/02 12:48:06;;;;;;;0.40;0.40;;;5.70;99.90;;;;;;6253181;23;20246;-82
2024/01/02 12:50:36;;;;;;;0.40;0.40;;;5.70;99.90;;;;;;6252478;23;20183;-84
2024/01/02 12:53:10;;;;;;;0.40;0.40;;;5.70;99.90;;;;;;6252100;23;20251;-80
2024/01/02 12:55:52;;;;;;;0.40;0.40;;;5.80;99.90;;;;;;6256972;23;20226;-81
2024/01/02 12:58:19;;;;;;;0.40;0.40;;;5.80;99.90;;;;;;6252973;23;20160;-82
2024/01/02 13:00:46;;;;;;;0.40;0.40;;;5.80;99.90;;;;;;6253330;23;20206;-81
2024/01/02 13:03:16;;;;;;;0.40;0.40;;;5.80;99.90;;;;;;6226108;23;20238;-82
2024/01/02 13:05:45;;;;;;;0.40;0.40;;;5.90;99.90;;;;;;6226148;23;20218;-82
2024/01/02 13:08:19;;;;;;;0.40;0.40;;;5.90;99.90;;;;;;6253523;23;20226;-83
2024/01/02 13:10:47;;;;;;;0.40;0.40;;;5.90;99.90;;;;;;6255262;23;20214;-82
2024/01/02 13:13:15;;;;;;;0.40;0.40;;;5.80;99.90;;;;;;6259881;23;20163;-84
2024/01/02 13:15:53;;;;;;;0.40;0.40;;;5.80;99.90;;;;;;6257866;23;20207;-81
2024/01/02 13:18:21;;;;;;;0.40;0.40;;;5.70;99.90;;;;;;6260393;23;20159;-82
2024/01/02 13:20:51;;;;;;;0.43;0.43;;;5.80;99.90;;;;;;6229127;23;20176;-82
2024/01/02 13:23:19;;;;;;;0.50;0.50;;;5.70;99.90;;;;;;6253102;23;20202;-83